Time;durP1;ratioP1;P1;durP2;ratioP2;P2;SDS_P1;SDS_P2;PMS_P1;PMS_P2;Temp;Humidity;BMP_temperature;BMP_pressure;BME280_temperature;BME280_humidity;BME280_pressure;Samples;Min_cycle;Max_cycle;Signal;HPM_P1;HPM_P2
2022/10/19 00:01:12;;;;;;;5.10;3.25;;;;;;;13.42;56.54;102790.59;5050450;28;20083;-69
2022/10/19 00:03:40;;;;;;;6.32;3.13;;;;;;;13.41;56.50;102781.63;5050733;28;20037;-69
2022/10/19 00:06:15;;;;;;;4.55;3.00;;;;;;;13.41;56.85;102781.63;5049299;28;20045;-69
2022/10/19 00:08:42;;;;;;;;;;;;;;;13.40;56.67;102787.09;5051247;28;20434;-69
2022/10/19 00:11:10;;;;;;;7.45;3.85;;;;;;;13.41;56.46;102781.63;5051158;28;19924;-69
2022/10/19 00:13:36;;;;;;;15.52;4.68;;;;;;;13.39;56.53;102786.22;5054722;28;20404;-68
2022/10/19 00:16:13;;;;;;;6.75;3.05;;;;;;;13.35;56.82;102780.09;5054473;28;20053;-68
2022/10/19 00:18:42;;;;;;;5.63;2.90;;;;;;;13.34;56.80;102772.94;5054837;28;20091;-69
2022/10/19 00:21:10;;;;;;;3.90;2.90;;;;;;;13.33;57.01;102773.03;5054600;28;20040;-69
2022/10/19 00:23:37;;;;;;;8.20;2.67;;;;;;;13.31;56.75;102762.31;5054802;28;20057;-68
2022/10/19 00:26:04;;;;;;;4.15;2.80;;;;;;;13.31;56.59;102769.53;5054298;28;20041;-70
2022/10/19 00:28:31;;;;;;;5.07;2.63;;;;;;;13.29;56.92;102756.13;5054193;28;20399;-69
2022/10/19 00:31:04;;;;;;;7.22;3.00;;;;;;;13.30;56.66;102763.28;5052805;28;20549;-69
2022/10/19 00:33:31;;;;;;;4.47;2.85;;;;;;;13.29;56.72;102761.53;5054267;28;20376;-69
2022/10/19 00:35:58;;;;;;;4.68;2.60;;;;;;;13.29;56.86;102757.94;5052653;28;20057;-69
2022/10/19 00:38:24;;;;;;;10.35;3.08;;;;;;;13.28;56.69;102772.41;5052910;28;20052;-70
2022/10/19 00:40:51;;;;;;;4.20;2.53;;;;;;;13.26;56.82;102768.91;5054804;28;20041;-69
2022/10/19 00:43:28;;;;;;;5.93;2.67;;;;;;;13.25;56.65;102768.03;5054057;28;20037;-69
2022/10/19 00:45:55;;;;;;;5.10;2.50;;;;;;;13.25;56.87;102769.84;5052496;28;20514;-69
2022/10/19 00:48:27;;;;;;;7.13;3.58;;;;;;;13.22;56.86;102770.88;5054297;28;20048;-69
2022/10/19 00:50:56;;;;;;;4.65;3.28;;;;;;;13.21;56.88;102773.66;5054120;28;20071;-69
2022/10/19 00:53:26;;;;;;;7.30;3.40;;;;;;;13.19;56.91;102773.75;5053722;28;20518;-70
2022/10/19 00:55:54;;;;;;;7.22;3.47;;;;;;;13.19;57.18;102767.47;5053852;28;20041;-69
2022/10/19 00:58:21;;;;;;;4.47;3.10;;;;;;;13.19;57.18;102770.19;5053427;28;20597;-69
2022/10/19 01:00:47;;;;;;;5.47;2.92;;;;;;;13.20;57.25;102770.09;5054001;28;20445;-69
2022/10/19 01:03:14;;;;;;;5.28;3.88;;;;;;;13.21;57.03;102773.66;5053579;28;20065;-69
2022/10/19 01:05:41;;;;;;;9.05;4.00;;;;;;;13.19;56.97;102778.25;5053306;28;20380;-69
2022/10/19 01:08:10;;;;;;;7.80;4.18;;;;;;;13.17;57.15;102778.34;5053737;28;20087;-70
2022/10/19 01:10:42;;;;;;;6.15;3.67;;;;;;;13.15;56.99;102777.53;5054148;28;20037;-69
2022/10/19 01:13:38;;;;;;;6.68;3.38;;;;;;;13.14;57.24;102772.19;5053660;28;20049;-70
2022/10/19 01:16:32;;;;;;;7.83;3.53;;;;;;;13.13;57.02;102767.75;5051541;28;20564;-71
2022/10/19 01:19:30;;;;;;;8.52;3.88;;;;;;;13.11;57.32;102762.44;5053973;28;20296;-70
2022/10/19 01:22:17;;;;;;;7.30;4.07;;;;;;;13.11;57.23;102758.88;5053129;28;20492;-70
2022/10/19 01:24:59;;;;;;;6.82;4.05;;;;;;;13.12;56.81;102761.50;5048899;28;20130;-69
2022/10/19 01:27:29;;;;;;;6.53;4.20;;;;;;;13.12;57.07;102757.91;5053264;28;20166;-70
2022/10/19 01:30:14;;;;;;;6.28;4.60;;;;;;;13.10;57.20;102755.28;5053331;28;20051;-70
2022/10/19 01:32:59;;;;;;;7.53;4.13;;;;;;;13.08;56.90;102756.34;5053103;28;20037;-70
2022/10/19 01:35:41;;;;;;;10.13;4.57;;;;;;;13.08;57.35;102756.34;5053014;28;20041;-69
2022/10/19 01:38:17;;;;;;;10.85;5.22;;;;;;;13.10;57.03;102749.03;5052964;28;20045;-70
2022/10/19 01:40:54;;;;;;;6.35;4.07;;;;;;;13.11;57.40;102745.38;5053317;28;20055;-69
2022/10/19 01:43:26;;;;;;;8.02;3.95;;;;;;;13.10;56.95;102747.22;5052770;28;20048;-70
2022/10/19 01:46:00;;;;;;;9.98;4.82;;;;;;;13.11;57.39;102751.66;5053145;28;20033;-70
2022/10/19 01:48:32;;;;;;;8.07;4.35;;;;;;;13.12;57.28;102750.69;5052536;28;20053;-70
2022/10/19 01:51:06;;;;;;;10.50;4.13;;;;;;;13.12;57.31;102739.03;5052625;28;20037;-70
2022/10/19 01:53:42;;;;;;;8.68;4.15;;;;;;;13.10;57.45;102743.63;5053061;28;20153;-69
2022/10/19 01:56:11;;;;;;;10.13;4.40;;;;;;;13.08;57.53;102738.31;5053022;28;20037;-69
2022/10/19 01:58:42;;;;;;;12.85;4.78;;;;;;;13.05;57.43;102743.88;5052454;28;20063;-70
2022/10/19 02:01:10;;;;;;;6.07;4.40;;;;;;;13.04;57.63;102747.53;5052773;28;20045;-70
2022/10/19 02:03:47;;;;;;;6.18;4.40;;;;;;;13.04;57.32;102744.81;5052650;28;20051;-70
2022/10/19 02:06:14;;;;;;;9.80;4.38;;;;;;;13.02;57.67;102739.50;5051747;28;20111;-69
2022/10/19 02:08:45;;;;;;;14.32;5.70;;;;;;;13.01;57.55;102742.28;5052064;28;20552;-70
2022/10/19 02:11:11;;;;;;;8.77;4.18;;;;;;;12.97;57.78;102740.69;5052517;28;20049;-70
2022/10/19 02:13:40;;;;;;;11.15;4.68;;;;;;;12.95;57.71;102742.59;5052367;28;20407;-70
2022/10/19 02:16:17;;;;;;;7.97;4.15;;;;;;;12.92;57.92;102734.66;5052385;28;20465;-70
2022/10/19 02:18:47;;;;;;;7.78;4.47;;;;;;;12.89;57.86;102733.00;5050863;28;20313;-69
2022/10/19 02:21:14;;;;;;;8.85;4.03;;;;;;;12.87;57.95;102726.81;5052778;28;20060;-70
2022/10/19 02:23:41;;;;;;;4.15;3.55;;;;;;;12.87;57.91;102728.63;5050855;28;20044;-70
2022/10/19 02:26:07;;;;;;;6.70;3.83;;;;;;;12.84;58.13;102726.97;5052195;28;20423;-70
2022/10/19 02:28:34;;;;;;;5.60;3.30;;;;;;;12.82;57.91;102717.22;5051752;28;20151;-69
2022/10/19 02:31:01;;;;;;;5.35;3.40;;;;;;;12.79;58.08;102720.06;5052213;28;20465;-69
2022/10/19 02:33:29;;;;;;;4.65;3.03;;;;;;;12.76;57.94;102710.31;5051932;28;20483;-70
2022/10/19 02:35:58;;;;;;;5.13;2.60;;;;;;;12.73;57.93;102713.16;5051980;28;20048;-69
2022/10/19 02:38:25;;;;;;;8.43;3.40;;;;;;;12.71;57.99;102715.06;5051107;28;20052;-69
2022/10/19 02:41:33;;;;;;;5.38;3.72;;;;;;;12.67;58.23;102700.00;5052201;28;20040;-69
2022/10/19 02:44:18;;;;;;;4.65;3.33;;;;;;;12.64;57.91;102695.63;5047627;28;20392;-70
2022/10/19 02:46:50;;;;;;;5.70;4.05;;;;;;;12.62;58.03;102691.22;5051415;28;20552;-69
2022/10/19 02:49:17;;;;;;;4.93;3.30;;;;;;;12.60;58.19;102691.31;5051522;28;20045;-69
2022/10/19 02:52:01;;;;;;;5.82;3.88;;;;;;;12.59;57.96;102692.25;5051813;28;20431;-70
2022/10/19 02:54:32;;;;;;;9.98;3.88;;;;;;;12.59;58.23;102686.00;5050285;28;20041;-70
2022/10/19 02:56:59;;;;;;;9.73;4.45;;;;;;;12.55;58.18;102685.28;5049637;28;20102;-69
2022/10/19 02:59:26;;;;;;;7.80;3.88;;;;;;;12.56;58.24;102686.13;5051280;28;20102;-69
2022/10/19 03:01:53;;;;;;;6.60;4.18;;;;;;;12.56;58.21;102688.84;5051076;28;20507;-70
2022/10/19 03:04:21;;;;;;;6.82;4.03;;;;;;;12.58;58.38;102682.41;5051717;28;20103;-70
2022/10/19 03:06:47;;;;;;;9.73;4.20;;;;;;;12.59;58.40;102691.38;5050625;28;20049;-70
2022/10/19 03:09:14;;;;;;;8.20;4.45;;;;;;;12.61;58.71;102695.75;5051323;28;20552;-70
2022/10/19 03:11:41;;;;;;;10.07;4.68;;;;;;;12.62;58.31;102693.91;5051166;28;20041;-70
2022/10/19 03:14:12;;;;;;;14.30;4.20;;;;;;;12.64;58.54;102694.75;5051771;28;20086;-70
2022/10/19 03:16:39;;;;;;;7.10;4.18;;;;;;;12.65;58.48;102700.06;5050336;28;20037;-70
2022/10/19 03:19:05;;;;;;;7.63;3.97;;;;;;;12.64;58.32;102703.72;5051386;28;20098;-69
2022/10/19 03:21:33;;;;;;;13.10;4.38;;;;;;;12.64;58.24;102698.31;5051811;28;20045;-70
2022/10/19 03:24:05;;;;;;;11.80;4.35;;;;;;;12.64;58.30;102697.44;5050141;28;20047;-70
2022/10/19 03:26:32;;;;;;;8.75;4.45;;;;;;;12.63;58.33;102692.97;5033423;28;20041;-70
2022/10/19 03:28:58;;;;;;;11.07;4.07;;;;;;;12.60;58.23;102691.31;5049836;28;20049;-70
2022/10/19 03:31:26;;;;;;;7.40;3.95;;;;;;;12.60;58.22;102693.13;5050932;28;20044;-70
2022/10/19 03:33:58;;;;;;;10.07;4.57;;;;;;;12.57;58.11;102687.88;5049624;28;20049;-72
2022/10/19 03:36:36;;;;;;;7.82;4.68;;;;;;;12.55;58.18;102684.41;5049509;28;20045;-70
2022/10/19 03:39:06;;;;;;;10.23;4.28;;;;;;;12.55;58.59;102687.09;5051107;28;20079;-70
2022/10/19 03:41:35;;;;;;;9.75;4.53;;;;;;;12.53;58.34;102684.47;5050975;28;20484;-70
2022/10/19 03:44:05;;;;;;;8.52;4.30;;;;;;;12.52;58.36;102680.03;5051166;28;20102;-71
2022/10/19 03:46:32;;;;;;;6.85;4.35;;;;;;;12.52;58.24;102684.56;5053328;28;20109;-70
2022/10/19 03:48:59;;;;;;;11.10;4.43;;;;;;;12.50;58.48;102683.75;5037458;28;20408;-70
2022/10/19 03:51:27;;;;;;;9.07;4.25;;;;;;;12.49;58.19;102685.56;5037498;28;20092;-70
2022/10/19 03:53:57;;;;;;;12.70;5.25;;;;;;;12.49;58.45;102692.78;5037726;28;20042;-70
2022/10/19 03:56:26;;;;;;;9.70;4.45;;;;;;;12.47;58.53;102686.59;5037628;28;20602;-70
2022/10/19 03:58:55;;;;;;;7.63;4.13;;;;;;;12.46;58.21;102692.94;5056986;28;20082;-70
2022/10/19 04:01:27;;;;;;;10.77;4.55;;;;;;;12.44;58.22;102682.25;5055829;28;20502;-70
2022/10/19 04:04:16;;;;;;;5.63;4.25;;;;;;;12.43;58.21;102685.88;5057442;28;20402;-69
2022/10/19 04:06:45;;;;;;;6.22;4.00;;;;;;;12.43;58.16;102685.00;5056732;28;20398;-69
2022/10/19 04:09:14;;;;;;;7.43;4.22;;;;;;;12.40;58.55;102688.72;5057427;28;20498;-69
2022/10/19 04:11:41;;;;;;;9.00;4.50;;;;;;;12.37;58.50;102688.88;5057183;28;20037;-70
2022/10/19 04:14:15;;;;;;;7.38;4.65;;;;;;;12.34;58.53;102689.91;5057566;28;20049;-70
2022/10/19 04:17:03;;;;;;;7.22;4.70;;;;;;;12.33;58.22;102690.84;5057332;28;20024;-69
2022/10/19 04:19:30;;;;;;;8.73;4.40;;;;;;;12.30;58.47;102696.41;5057350;28;20041;-69
2022/10/19 04:21:57;;;;;;;9.07;5.10;;;;;;;12.29;58.41;102693.78;5057244;28;20124;-70
2022/10/19 04:24:25;;;;;;;6.72;4.38;;;;;;;12.28;58.59;102692.03;5056259;28;20469;-71
2022/10/19 04:26:53;;;;;;;10.80;5.68;;;;;;;12.27;58.56;102692.97;5056785;28;20103;-70
2022/10/19 04:29:22;;;;;;;10.10;5.20;;;;;;;12.27;58.45;102692.97;5057115;28;20445;-70
2022/10/19 04:31:55;;;;;;;8.87;5.03;;;;;;;12.27;58.76;102691.16;5057647;28;20414;-70
2022/10/19 04:34:24;;;;;;;7.53;5.05;;;;;;;12.27;58.54;102695.66;5057260;28;20049;-69
2022/10/19 04:36:52;;;;;;;7.68;4.78;;;;;;;12.24;58.41;102691.31;5056751;28;20544;-70
2022/10/19 04:39:19;;;;;;;9.75;4.97;;;;;;;12.23;58.50;102697.63;5057073;28;20049;-69
2022/10/19 04:41:45;;;;;;;6.20;4.50;;;;;;;12.23;58.47;102691.38;5057031;28;20546;-70
2022/10/19 04:44:16;;;;;;;6.38;4.78;;;;;;;12.22;58.55;102695.91;5057272;28;20041;-70
2022/10/19 04:46:42;;;;;;;8.23;4.18;;;;;;;12.24;58.45;102698.50;5056525;28;20044;-70
2022/10/19 04:49:09;;;;;;;7.47;5.07;;;;;;;12.24;58.65;102693.13;5057220;28;20644;-70
2022/10/19 04:51:35;;;;;;;6.35;4.35;;;;;;;12.23;58.46;102694.06;5055707;28;20041;-70
2022/10/19 04:54:04;;;;;;;6.72;4.28;;;;;;;12.21;58.48;102690.59;5055939;28;20373;-70
2022/10/19 04:56:31;;;;;;;8.48;4.10;;;;;;;12.18;58.21;102696.13;5056868;28;20041;-70
2022/10/19 04:58:59;;;;;;;6.50;3.50;;;;;;;12.12;58.23;102691.03;5053198;28;20090;-70
2022/10/19 05:01:29;;;;;;;3.30;2.25;;;;;;;12.06;57.95;102684.13;5052555;28;20118;-70
2022/10/19 05:04:01;;;;;;;2.95;2.30;;;;;;;11.99;58.25;102696.13;5052646;28;20041;-69
2022/10/19 05:06:29;;;;;;;3.75;2.10;;;;;;;11.91;58.09;102688.41;5053248;28;20049;-70
2022/10/19 05:08:56;;;;;;;3.92;2.70;;;;;;;11.84;57.99;102692.31;5052310;28;20041;-69
2022/10/19 05:11:23;;;;;;;3.65;2.40;;;;;;;11.77;58.29;102682.75;5052570;28;20045;-69
2022/10/19 05:13:50;;;;;;;6.85;2.88;;;;;;;11.73;58.07;102686.53;5053582;28;20461;-70
2022/10/19 05:16:19;;;;;;;4.38;2.97;;;;;;;11.67;58.19;102686.81;5053426;28;20057;-70
2022/10/19 05:18:47;;;;;;;3.33;2.90;;;;;;;11.62;58.20;102676.25;5053443;28;20133;-70
2022/10/19 05:21:14;;;;;;;3.33;3.00;;;;;;;11.59;58.07;102680.91;5053554;28;20471;-70
2022/10/19 05:23:41;;;;;;;5.68;3.00;;;;;;;11.56;58.17;102676.53;5052375;28;20090;-70
2022/10/19 05:26:17;;;;;;;3.35;2.70;;;;;;;11.56;58.39;102681.94;5053201;28;20470;-69
2022/10/19 05:28:55;;;;;;;3.00;2.40;;;;;;;11.56;58.38;102686.44;5039567;28;20075;-71
2022/10/19 05:31:24;;;;;;;6.07;2.85;;;;;;;11.55;58.08;102680.19;5053263;28;20508;-70
2022/10/19 05:33:57;;;;;;;3.35;2.78;;;;;;;11.54;58.11;102673.03;5053316;28;20044;-72
2022/10/19 05:36:36;;;;;;;4.35;3.00;;;;;;;11.51;58.13;102677.69;5051786;28;20041;-71
2022/10/19 05:39:15;;;;;;;4.75;3.50;;;;;;;11.46;58.09;102683.28;5053312;28;20106;-71
2022/10/19 05:41:46;;;;;;;5.97;3.00;;;;;;;11.40;58.13;102689.81;5052854;28;20041;-70
2022/10/19 05:44:17;;;;;;;4.93;3.08;;;;;;;11.34;58.14;102682.03;5052763;28;20491;-71
2022/10/19 05:46:44;;;;;;;3.35;2.70;;;;;;;11.30;58.16;102679.53;5051170;28;20444;-70
2022/10/19 05:49:12;;;;;;;3.42;3.00;;;;;;;11.25;58.34;102677.06;5052677;28;20040;-71
2022/10/19 05:51:40;;;;;;;3.85;2.92;;;;;;;11.21;58.24;102674.59;5050832;28;20466;-70
2022/10/19 05:54:10;;;;;;;5.07;2.30;;;;;;;11.21;58.37;102669.19;5052955;28;20036;-70
2022/10/19 05:56:39;;;;;;;5.07;2.67;;;;;;;11.20;58.41;102671.00;5052336;28;20037;-69
2022/10/19 05:59:07;;;;;;;6.15;3.00;;;;;;;11.18;58.27;102669.34;5052734;28;20494;-69
2022/10/19 06:01:35;;;;;;;3.90;2.78;;;;;;;11.16;58.15;102676.59;5052508;28;20045;-69
2022/10/19 06:04:03;;;;;;;4.25;3.33;;;;;;;11.12;58.36;102667.75;5052881;28;20149;-69
2022/10/19 06:06:30;;;;;;;7.82;3.80;;;;;;;11.11;58.47;102666.00;5051898;28;20060;-69
2022/10/19 06:08:57;;;;;;;7.47;4.05;;;;;;;11.10;58.23;102661.56;5052169;28;20181;-69
2022/10/19 06:11:26;;;;;;;5.47;4.80;;;;;;;11.08;58.32;102664.34;5052488;28;20037;-69
2022/10/19 06:13:57;;;;;;;5.72;4.50;;;;;;;11.08;58.48;102669.72;5052480;28;20052;-71
2022/10/19 06:16:25;;;;;;;11.15;4.38;;;;;;;11.04;58.29;102651.97;5052183;28;20048;-69
2022/10/19 06:18:53;;;;;;;9.27;4.90;;;;;;;11.01;58.34;102659.31;5052811;28;20139;-73
2022/10/19 06:21:22;;;;;;;9.02;5.15;;;;;;;10.99;58.40;102667.44;5051154;28;20052;-73
2022/10/19 06:23:50;;;;;;;9.70;5.32;;;;;;;10.95;58.51;102679.25;5052367;28;20063;-74
2022/10/19 06:26:26;;;;;;;9.65;5.00;;;;;;;10.94;58.44;102684.69;5052344;28;20075;-73
2022/10/19 06:28:56;;;;;;;8.50;5.97;;;;;;;10.90;58.70;102675.91;5052678;28;20036;-73
2022/10/19 06:31:23;;;;;;;7.43;5.68;;;;;;;10.91;58.77;102674.09;5052197;28;20549;-73
2022/10/19 06:33:49;;;;;;;8.15;5.90;;;;;;;10.90;58.84;102672.34;5052225;28;20037;-74
2022/10/19 06:36:20;;;;;;;9.55;6.15;;;;;;;10.92;58.95;102670.47;5051078;28;20049;-70
2022/10/19 06:38:47;;;;;;;8.85;6.03;;;;;;;10.93;59.00;102661.44;5050965;28;20398;-71
2022/10/19 06:41:16;;;;;;;10.75;6.45;;;;;;;10.98;58.99;102660.31;5050372;28;20037;-72
2022/10/19 06:43:47;;;;;;;8.85;6.03;;;;;;;11.01;59.19;102668.25;5051825;28;20036;-72
2022/10/19 06:46:19;;;;;;;9.57;5.78;;;;;;;11.07;59.24;102665.28;5052250;28;20044;-73
2022/10/19 06:48:50;;;;;;;12.35;8.32;;;;;;;11.13;59.17;102667.69;5051827;28;20056;-74
2022/10/19 06:51:17;;;;;;;13.82;8.00;;;;;;;11.17;59.47;102663.09;5050769;28;20041;-74
2022/10/19 06:53:44;;;;;;;10.00;8.20;;;;;;;11.23;59.54;102652.06;5051578;28;20095;-74
2022/10/19 06:56:11;;;;;;;13.23;7.32;;;;;;;11.28;59.73;102655.41;5050605;28;20564;-75
2022/10/19 06:58:38;;;;;;;10.52;8.07;;;;;;;11.33;59.68;102664.16;5050680;28;20095;-74
2022/10/19 07:01:06;;;;;;;13.32;8.27;;;;;;;11.43;59.66;102654.72;5049841;28;20574;-74
2022/10/19 07:03:34;;;;;;;12.23;8.07;;;;;;;11.54;59.96;102666.78;5051698;28;20063;-75
2022/10/19 07:06:09;;;;;;;14.18;8.18;;;;;;;11.61;60.05;102671.81;5051627;28;20433;-75
2022/10/19 07:08:37;;;;;;;16.20;8.85;;;;;;;11.71;60.15;102669.56;5051121;28;20045;-75
2022/10/19 07:11:06;;;;;;;14.00;9.15;;;;;;;11.78;60.28;102666.56;5049732;28;20091;-74
2022/10/19 07:13:33;;;;;;;20.80;9.80;;;;;;;11.85;59.91;102672.53;5050786;28;20041;-75
2022/10/19 07:16:10;;;;;;;13.05;9.50;;;;;;;11.92;60.19;102673.13;5051376;28;20107;-74
2022/10/19 07:18:43;;;;;;;17.27;11.70;;;;;;;11.99;60.28;102669.19;5051576;28;20398;-74
2022/10/19 07:21:13;;;;;;;17.83;11.85;;;;;;;12.05;60.20;102669.78;5050393;28;20041;-75
2022/10/19 07:23:41;;;;;;;17.90;12.07;;;;;;;12.12;60.29;102674.88;5050781;28;20094;-73
2022/10/19 07:26:22;;;;;;;19.08;13.48;;;;;;;12.17;60.35;102679.09;5051363;28;20037;-71
2022/10/19 07:28:48;;;;;;;21.55;13.65;;;;;;;12.23;60.52;102675.22;5050644;28;20090;-74
2022/10/19 07:31:17;;;;;;;23.23;13.52;;;;;;;12.28;60.33;102675.88;5049287;28;20045;-72
2022/10/19 07:33:44;;;;;;;22.67;13.40;;;;;;;12.31;60.65;102668.50;5050852;28;20041;-73
2022/10/19 07:36:12;;;;;;;21.27;14.00;;;;;;;12.38;60.32;102671.75;5051462;28;20095;-73
2022/10/19 07:38:39;;;;;;;22.48;13.48;;;;;;;12.44;60.52;102675.97;5051165;28;20062;-73
2022/10/19 07:41:11;;;;;;;19.92;12.95;;;;;;;12.50;60.69;102664.88;5051156;28;20045;-73
2022/10/19 07:43:39;;;;;;;16.63;11.73;;;;;;;12.54;60.80;102670.03;5051401;28;20052;-73
2022/10/19 07:46:11;;;;;;;20.40;13.02;;;;;;;12.59;60.68;102657.22;5051276;28;20045;-73
2022/10/19 07:48:37;;;;;;;20.25;13.02;;;;;;;12.66;60.74;102658.69;5049758;28;20041;-73
2022/10/19 07:51:07;;;;;;;17.05;12.15;;;;;;;12.72;60.85;102655.66;5050916;28;20044;-73
2022/10/19 07:53:34;;;;;;;16.20;10.88;;;;;;;12.80;61.19;102666.06;5050857;28;20064;-74
2022/10/19 07:56:09;;;;;;;20.40;12.27;;;;;;;12.87;61.31;102659.41;5051207;28;20091;-74
2022/10/19 07:58:36;;;;;;;15.27;10.90;;;;;;;12.95;61.34;102664.38;5051097;28;20037;-73
2022/10/19 08:01:05;;;;;;;18.15;11.48;;;;;;;13.01;61.42;102673.03;5050701;28;20106;-73
2022/10/19 08:03:33;;;;;;;16.45;10.82;;;;;;;13.10;61.49;102668.09;5051011;28;20034;-73
2022/10/19 08:06:24;;;;;;;13.30;9.95;;;;;;;13.20;61.25;102672.97;5050918;28;20029;-71
2022/10/19 08:08:51;;;;;;;22.13;11.57;;;;;;;13.30;61.74;102674.22;5049589;28;20041;-73
2022/10/19 08:11:25;;;;;;;13.25;8.88;;;;;;;13.43;61.43;102665.50;5050874;28;20091;-73
2022/10/19 08:14:07;;;;;;;12.27;9.23;;;;;;;13.55;61.51;102659.44;5051066;28;20029;-73
2022/10/19 08:16:39;;;;;;;16.45;8.80;;;;;;;13.70;61.70;102661.28;5050662;28;20040;-70
2022/10/19 08:19:13;;;;;;;12.45;8.32;;;;;;;13.86;62.01;102658.59;5050790;28;20075;-72
2022/10/19 08:21:43;;;;;;;13.95;6.95;;;;;;;14.03;61.72;102646.84;5050169;28;20095;-74
2022/10/19 08:24:14;;;;;;;12.15;7.10;;;;;;;14.19;61.89;102645.03;5050398;28;20033;-73
2022/10/19 08:26:42;;;;;;;12.02;6.57;;;;;;;14.36;61.77;102647.63;5029398;28;20500;-73
2022/10/19 08:29:19;;;;;;;11.63;6.35;;;;;;;14.54;61.88;102645.69;5038096;28;20037;-73
2022/10/19 08:31:47;;;;;;;12.10;6.05;;;;;;;14.72;61.57;102652.72;5048322;28;20072;-73
2022/10/19 08:34:15;;;;;;;7.50;5.07;;;;;;;14.87;61.34;102637.44;5054404;28;20091;-73
2022/10/19 08:36:42;;;;;;;7.80;4.75;;;;;;;15.02;61.19;102636.50;5054194;28;20044;-71
2022/10/19 08:39:13;;;;;;;8.18;5.45;;;;;;;15.20;61.04;102645.31;5054218;28;20550;-72
2022/10/19 08:42:02;;;;;;;10.43;5.25;;;;;;;15.41;61.16;102643.97;5051502;28;20087;-73
2022/10/19 08:44:52;;;;;;;9.55;4.90;;;;;;;15.56;60.46;102639.41;5053951;28;20048;-71
2022/10/19 08:47:49;;;;;;;12.88;4.82;;;;;;;15.72;60.51;102648.38;5052134;28;20087;-74
2022/10/19 08:50:16;;;;;;;9.55;3.92;;;;;;;15.89;60.41;102637.31;5053294;28;20049;-75
2022/10/19 08:52:46;;;;;;;9.10;4.03;;;;;;;16.05;60.21;102630.88;5053552;28;20041;-74
2022/10/19 08:55:20;;;;;;;7.30;3.10;;;;;;;16.19;60.02;102631.72;5052886;28;20037;-72
2022/10/19 08:58:13;;;;;;;10.43;3.38;;;;;;;16.34;59.57;102616.25;5053629;28;20083;-75
2022/10/19 09:00:48;;;;;;;7.63;3.30;;;;;;;16.46;59.26;102610.03;5053615;28;20033;-72
2022/10/19 09:03:41;;;;;;;8.37;3.23;;;;;;;16.57;59.40;102608.44;5053851;28;20037;-74
2022/10/19 09:06:59;;;;;;;9.05;3.00;;;;;;;16.69;58.89;102605.78;5052399;28;20045;-73
2022/10/19 09:09:28;;;;;;;4.25;2.55;;;;;;;16.77;58.53;102605.25;5053360;28;20111;-73
2022/10/19 09:12:02;;;;;;;6.00;2.83;;;;;;;16.83;58.73;102607.53;5053135;28;20106;-73
2022/10/19 09:14:54;;;;;;;5.63;2.80;;;;;;;16.89;58.19;102607.13;5052362;28;20087;-74
2022/10/19 09:17:21;;;;;;;5.22;2.55;;;;;;;16.98;58.18;102603.75;5053569;28;20053;-73
2022/10/19 09:19:47;;;;;;;15.00;3.45;;;;;;;17.05;57.83;102617.75;5053407;28;20407;-74
2022/10/19 09:22:19;;;;;;;6.57;2.20;;;;;;;17.12;57.93;102598.25;5052694;28;20487;-74
2022/10/19 09:24:53;;;;;;;6.63;2.33;;;;;;;17.21;57.59;102598.56;5053225;28;20065;-74
2022/10/19 09:27:27;;;;;;;5.28;2.20;;;;;;;17.31;57.49;102595.09;5051416;28;20041;-74
2022/10/19 09:29:56;;;;;;;5.03;2.30;;;;;;;17.44;57.08;102593.22;5052929;28;20045;-74
2022/10/19 09:32:43;;;;;;;5.88;2.00;;;;;;;17.55;56.68;102588.84;5052579;28;20306;-72
2022/10/19 09:35:15;;;;;;;9.00;2.45;;;;;;;17.64;56.48;102588.19;5053178;28;20033;-71
2022/10/19 09:37:45;;;;;;;7.78;2.20;;;;;;;17.72;56.80;102586.69;5051412;28;20041;-73
2022/10/19 09:40:17;;;;;;;5.45;1.85;;;;;;;17.81;56.51;102595.13;5051879;28;20557;-72
2022/10/19 09:42:43;;;;;;;4.55;1.75;;;;;;;17.90;56.22;102578.16;5052355;28;20041;-73
2022/10/19 09:45:18;;;;;;;7.03;1.85;;;;;;;17.99;55.85;102577.47;5052157;28;20487;-73
2022/10/19 09:47:47;;;;;;;5.45;2.20;;;;;;;18.12;55.94;102580.16;5052898;28;20102;-74
2022/10/19 09:50:18;;;;;;;6.63;2.38;;;;;;;18.25;55.60;102578.22;5051469;28;20083;-73
2022/10/19 09:52:47;;;;;;;4.88;2.13;;;;;;;18.37;55.53;102577.28;5051878;28;20041;-72
2022/10/19 09:55:36;;;;;;;6.40;2.00;;;;;;;18.48;55.08;102576.47;5052731;28;20083;-71
2022/10/19 09:58:14;;;;;;;5.97;2.08;;;;;;;18.62;54.99;102582.63;5052909;28;20069;-72
2022/10/19 10:00:49;;;;;;;5.05;1.50;;;;;;;18.72;54.48;102577.34;5032891;28;20038;-71
2022/10/19 10:03:33;;;;;;;6.22;1.90;;;;;;;18.76;53.96;102584.28;5032303;28;20454;-76
2022/10/19 10:06:28;;;;;;;9.02;2.42;;;;;;;18.79;53.80;102584.03;5031460;28;20640;-72
2022/10/19 10:08:58;;;;;;;4.53;1.42;;;;;;;18.85;53.35;102580.84;5037804;28;20045;-72
2022/10/19 10:11:36;;;;;;;3.78;1.77;;;;;;;18.90;53.53;102569.59;5051911;28;20434;-72
2022/10/19 10:14:20;;;;;;;8.10;2.40;;;;;;;19.00;53.47;102566.00;5032317;28;20037;-72
2022/10/19 10:16:47;;;;;;;5.57;1.70;;;;;;;19.09;53.01;102575.31;5032376;28;20341;-72
2022/10/19 10:19:15;;;;;;;3.40;1.70;;;;;;;19.11;52.96;102562.44;5032652;28;20464;-72
2022/10/19 10:21:47;;;;;;;6.68;1.70;;;;;;;19.12;52.27;102561.44;5031729;28;20046;-71
2022/10/19 10:24:18;;;;;;;5.63;1.50;;;;;;;19.08;51.96;102549.06;5047419;28;20048;-75
2022/10/19 10:26:50;;;;;;;8.05;2.53;;;;;;;19.03;51.64;102554.00;5050846;28;20037;-75
2022/10/19 10:29:32;;;;;;;5.25;1.88;;;;;;;19.01;51.89;102556.84;5051733;28;20091;-76
2022/10/19 10:32:14;;;;;;;5.55;1.67;;;;;;;19.01;51.26;102555.97;5050124;28;20438;-75
2022/10/19 10:34:47;;;;;;;5.40;1.88;;;;;;;19.01;51.52;102554.13;5051566;28;20076;-76
2022/10/19 10:37:40;;;;;;;6.18;2.33;;;;;;;19.01;51.19;102539.66;5051618;28;20036;-74
2022/10/19 10:40:23;;;;;;;8.32;2.17;;;;;;;19.02;51.11;102530.50;5051871;28;20041;-74
2022/10/19 10:42:52;;;;;;;4.95;1.70;;;;;;;19.05;51.00;102525.66;5050995;28;20037;-74
2022/10/19 10:45:38;;;;;;;5.50;1.75;;;;;;;19.11;50.72;102531.59;5052155;28;20542;-74
2022/10/19 10:48:16;;;;;;;5.90;2.30;;;;;;;19.17;51.19;102526.53;5051504;28;20099;-74
2022/10/19 10:50:43;;;;;;;3.10;1.45;;;;;;;19.25;50.61;102529.50;5050270;28;20052;-74
2022/10/19 10:53:38;;;;;;;6.75;1.70;;;;;;;19.33;50.52;102534.34;5050819;28;20344;-74
2022/10/19 10:56:20;;;;;;;5.28;1.70;;;;;;;19.49;50.75;102536.69;5033192;28;20057;-75
2022/10/19 10:58:57;;;;;;;9.57;1.80;;;;;;;19.62;50.47;102521.09;5051182;28;20029;-73
2022/10/19 11:01:31;;;;;;;5.43;2.33;;;;;;;19.69;50.22;102530.50;5051237;28;20110;-75
2022/10/19 11:04:08;;;;;;;4.07;1.60;;;;;;;19.79;50.40;102519.69;5050580;28;20037;-75
2022/10/19 11:06:41;;;;;;;6.03;1.80;;;;;;;19.90;50.16;102519.66;5049986;28;20430;-74
2022/10/19 11:09:34;;;;;;;5.03;1.77;;;;;;;19.95;49.91;102510.09;5051396;28;20045;-74
2022/10/19 11:12:04;;;;;;;5.85;1.40;;;;;;;20.02;49.55;102507.72;5049659;28;20049;-75
2022/10/19 11:14:52;;;;;;;3.45;1.55;;;;;;;20.05;49.22;102503.84;5051222;28;20045;-74
2022/10/19 11:17:24;;;;;;;5.88;1.60;;;;;;;20.09;49.16;102502.63;5048993;28;20295;-73
2022/10/19 11:19:51;;;;;;;5.13;1.85;;;;;;;20.10;49.15;102486.13;5050908;28;20053;-73
2022/10/19 11:22:28;;;;;;;5.15;1.60;;;;;;;20.09;48.60;102481.66;5049973;28;20114;-72
2022/10/19 11:25:18;;;;;;;4.45;1.38;;;;;;;20.07;48.30;102483.66;5050911;28;20044;-73
2022/10/19 11:27:57;;;;;;;2.75;1.35;;;;;;;20.10;48.50;102479.81;5050825;28;20453;-73
2022/10/19 11:30:25;;;;;;;4.63;1.60;;;;;;;20.13;48.34;102482.28;5050427;28;20045;-73
2022/10/19 11:33:14;;;;;;;5.72;1.90;;;;;;;20.14;48.08;102467.63;5050526;28;20153;-72
2022/10/19 11:35:51;;;;;;;4.07;1.35;;;;;;;20.22;48.28;102476.91;5051043;28;20098;-72
2022/10/19 11:38:26;;;;;;;4.20;1.52;;;;;;;20.36;48.28;102474.84;5050573;28;20041;-72
2022/10/19 11:41:17;;;;;;;4.78;1.83;;;;;;;20.51;48.03;102458.00;5050927;28;20033;-72
2022/10/19 11:44:02;;;;;;;6.57;1.90;;;;;;;20.70;48.28;102451.78;5050064;28;20124;-73
2022/10/19 11:47:08;;;;;;;5.73;1.70;;;;;;;20.86;47.85;102463.13;5051090;28;20397;-72